Time;durP1;ratioP1;P1;durP2;ratioP2;P2;SDS_P1;SDS_P2;PMS_P1;PMS_P2;Temp;Humidity;BMP_temperature;BMP_pressure;BME280_temperature;BME280_humidity;BME280_pressure;Samples;Min_cycle;Max_cycle;Signal;HPM_P1;HPM_P2
2023/06/28 00:01:30;;;;;;;3.43;1.60;;;;;;;17.53;62.60;150462.56;4930573;28;20650;-62
2023/06/28 00:04:00;;;;;;;7.60;2.27;;;;;;;17.52;62.20;150461.34;4937358;28;20228;-62
2023/06/28 00:06:26;;;;;;;7.60;2.10;;;;;;;17.53;62.92;150462.56;4940509;28;20233;-62
2023/06/28 00:08:53;;;;;;;9.23;2.00;;;;;;;17.52;63.03;150461.34;4934188;28;20233;-62
2023/06/28 00:11:19;;;;;;;4.37;2.10;;;;;;;17.54;61.75;150466.34;4931129;28;20239;-62
2023/06/28 00:13:46;;;;;;;2.87;1.83;;;;;;;17.54;63.00;150466.34;4937898;28;20294;-62
2023/06/28 00:16:14;;;;;;;6.90;2.20;;;;;;;17.52;62.44;150461.34;4936963;28;20232;-62
2023/06/28 00:18:43;;;;;;;2.77;1.73;;;;;;;17.49;62.68;150453.84;4935646;28;20261;-63
2023/06/28 00:21:13;;;;;;;3.60;1.80;;;;;;;17.50;62.98;150456.34;4931689;28;20322;-62
2023/06/28 00:23:39;;;;;;;5.43;1.90;;;;;;;17.53;63.88;150463.84;4933982;28;20251;-62
2023/06/28 00:26:06;;;;;;;3.43;1.93;;;;;;;17.47;63.15;150448.81;4935542;28;20227;-62
2023/06/28 00:28:33;;;;;;;5.10;2.20;;;;;;;17.49;63.70;150452.59;4932362;28;20298;-62
2023/06/28 00:31:00;;;;;;;4.77;2.43;;;;;;;17.49;62.82;150453.84;4930760;28;20243;-62
2023/06/28 00:33:27;;;;;;;4.07;2.00;;;;;;;17.47;63.32;150447.59;4947621;28;20696;-62
2023/06/28 00:35:55;;;;;;;4.67;1.90;;;;;;;17.48;62.87;150450.09;4931662;28;20268;-62
2023/06/28 00:38:22;;;;;;;8.90;2.27;;;;;;;17.45;64.03;150443.81;4928953;28;20240;-62
2023/06/28 00:40:49;;;;;;;3.30;2.00;;;;;;;17.38;63.81;150426.31;4932481;28;20791;-62
2023/06/28 00:43:15;;;;;;;4.30;1.93;;;;;;;17.37;64.85;150423.81;4931417;28;20244;-62
2023/06/28 00:45:43;;;;;;;4.23;2.60;;;;;;;17.37;62.93;150423.81;4932143;28;20227;-62
2023/06/28 00:48:10;;;;;;;3.80;2.10;;;;;;;17.40;62.37;150432.59;4933683;28;20230;-62
2023/06/28 00:50:37;;;;;;;6.27;1.90;;;;;;;17.38;62.99;150426.31;4933543;28;20229;-62
2023/06/28 00:53:06;;;;;;;5.03;1.73;;;;;;;17.37;63.76;150423.81;4933158;28;20246;-62
2023/06/28 00:55:32;;;;;;;4.27;2.07;;;;;;;17.35;64.41;150420.09;4930533;28;20239;-62
2023/06/28 00:58:01;;;;;;;7.67;1.70;;;;;;;17.34;64.49;150416.31;4936249;28;20692;-62
2023/06/28 01:00:27;;;;;;;5.70;1.93;;;;;;;17.36;64.45;150422.59;4933947;28;20250;-62
2023/06/28 01:02:54;;;;;;;4.83;2.00;;;;;;;17.38;64.36;150426.31;4937125;28;20694;-62
2023/06/28 01:05:21;;;;;;;4.77;2.00;;;;;;;17.37;65.96;150425.09;4947690;28;20223;-62
2023/06/28 01:07:51;;;;;;;6.57;2.13;;;;;;;17.34;65.26;150417.56;4936638;28;20277;-62
2023/06/28 01:10:19;;;;;;;4.30;1.80;;;;;;;17.33;65.26;150413.81;4945557;28;20639;-62
2023/06/28 01:12:48;;;;;;;6.20;1.93;;;;;;;17.31;64.96;150408.81;4947325;28;20811;-62
2023/06/28 01:15:15;;;;;;;5.03;1.90;;;;;;;17.28;66.25;150402.56;4930449;28;20314;-62
2023/06/28 01:17:42;;;;;;;3.67;1.90;;;;;;;17.26;65.48;150398.78;4934873;28;20301;-62
2023/06/28 01:20:09;;;;;;;5.87;1.97;;;;;;;17.27;65.07;150400.06;4942031;28;20242;-62
2023/06/28 01:22:40;;;;;;;3.00;2.00;;;;;;;17.23;64.81;150391.28;4935454;28;20249;-62
2023/06/28 01:25:09;;;;;;;2.67;1.60;;;;;;;17.26;66.18;150398.78;4933937;28;20230;-62
2023/06/28 01:27:37;;;;;;;3.47;1.73;;;;;;;17.21;65.17;150386.28;4927978;28;20721;-62
2023/06/28 01:30:05;;;;;;;6.07;2.40;;;;;;;17.23;65.52;150391.28;4950132;28;20231;-62
2023/06/28 01:32:31;;;;;;;3.87;2.20;;;;;;;17.20;64.81;150383.78;4928898;28;20332;-62
2023/06/28 01:34:59;;;;;;;5.20;1.70;;;;;;;17.27;64.97;150401.28;4950488;28;20257;-62
2023/06/28 01:37:26;;;;;;;7.90;2.17;;;;;;;17.25;63.99;150395.06;4932013;28;20666;-62
2023/06/28 01:39:53;;;;;;;3.60;1.87;;;;;;;17.27;65.11;150400.06;4932170;28;20237;-62
2023/06/28 01:42:22;;;;;;;5.53;2.27;;;;;;;17.19;65.37;150380.06;4939996;28;20234;-62
2023/06/28 01:44:48;;;;;;;6.07;2.17;;;;;;;17.15;65.91;150371.28;4935974;28;20236;-62
2023/06/28 01:47:15;;;;;;;5.30;2.00;;;;;;;17.17;65.96;150375.06;4933111;28;20231;-62
2023/06/28 01:49:42;;;;;;;8.93;2.27;;;;;;;17.12;65.65;150363.78;4929751;28;20691;-62
2023/06/28 01:52:09;;;;;;;5.03;1.87;;;;;;;17.10;65.02;150358.78;4931069;28;20690;-62
2023/06/28 01:54:36;;;;;;;6.30;2.37;;;;;;;17.17;66.11;150376.28;4930228;28;20225;-62
2023/06/28 01:57:03;;;;;;;2.67;1.70;;;;;;;17.10;66.53;150360.03;4930559;28;20244;-62
2023/06/28 01:59:31;;;;;;;3.53;1.90;;;;;;;17.06;66.34;150350.03;4935169;28;20238;-62
2023/06/28 02:01:59;;;;;;;4.33;1.93;;;;;;;17.06;65.43;150348.78;4935804;28;20729;-62
2023/06/28 02:04:25;;;;;;;5.83;2.00;;;;;;;17.07;65.88;150351.25;4937340;28;20231;-62
2023/06/28 02:06:53;;;;;;;6.70;2.03;;;;;;;17.04;66.32;150345.03;4940384;28;20713;-62
2023/06/28 02:09:19;;;;;;;5.93;2.23;;;;;;;17.02;65.82;150338.75;4935085;28;20653;-62
2023/06/28 02:11:46;;;;;;;5.90;2.30;;;;;;;17.05;65.48;150346.25;4934033;28;20270;-62
2023/06/28 02:14:14;;;;;;;3.77;1.93;;;;;;;17.04;66.87;150345.03;4936602;28;20702;-62
2023/06/28 02:16:42;;;;;;;3.63;2.10;;;;;;;17.03;66.47;150341.25;4939094;28;20357;-62
2023/06/28 02:19:12;;;;;;;5.07;2.10;;;;;;;16.99;67.34;150331.25;4936044;28;20242;-62
2023/06/28 02:21:41;;;;;;;6.93;1.93;;;;;;;16.98;65.96;150330.03;4936452;28;20315;-63
2023/06/28 02:24:08;;;;;;;4.47;1.80;;;;;;;17.00;65.39;150335.03;4937835;28;20348;-62
2023/06/28 02:26:35;;;;;;;3.87;1.70;;;;;;;16.94;65.63;150321.25;4937944;28;20239;-62
2023/06/28 02:29:02;;;;;;;6.73;1.83;;;;;;;16.90;67.11;150311.25;4942021;28;20278;-62
2023/06/28 02:31:28;;;;;;;3.27;2.10;;;;;;;16.94;65.66;150319.97;4930710;28;20278;-62
2023/06/28 02:34:01;;;;;;;5.97;2.40;;;;;;;16.96;66.75;150326.25;4935361;28;20233;-62
2023/06/28 02:36:28;;;;;;;5.23;1.50;;;;;;;16.99;66.40;150332.53;4931801;28;20612;-62
2023/06/28 02:39:00;;;;;;;6.93;2.03;;;;;;;16.91;65.15;150312.47;4948731;28;20589;-62
2023/06/28 02:41:30;;;;;;;4.70;1.90;;;;;;;16.88;67.02;150306.25;4905718;28;20244;-62
2023/06/28 02:44:00;;;;;;;4.40;2.00;;;;;;;16.89;67.63;150307.47;4923193;28;20248;-62
2023/06/28 02:46:26;;;;;;;4.70;2.10;;;;;;;16.88;66.74;150306.25;4929361;28;20239;-62
2023/06/28 02:48:57;;;;;;;5.50;2.10;;;;;;;16.87;68.17;150302.47;4941586;28;20238;-62
2023/06/28 02:51:25;;;;;;;5.67;2.43;;;;;;;16.79;69.63;150283.75;4933788;28;20236;-62
2023/06/28 02:53:51;;;;;;;6.83;2.07;;;;;;;16.76;69.82;150277.47;4939708;28;20249;-62
2023/06/28 02:56:18;;;;;;;4.77;2.27;;;;;;;16.75;69.11;150274.97;4901227;28;20244;-62
2023/06/28 02:59:08;;;;;;;5.83;2.10;;;;;;;16.77;69.03;150278.75;4876925;28;20240;-64
2023/06/28 03:01:34;;;;;;;6.33;2.33;;;;;;;16.77;69.42;150278.75;4950806;28;21204;-62
2023/06/28 03:04:03;;;;;;;3.27;2.00;;;;;;;16.77;71.08;150279.97;4941833;28;20257;-63
2023/06/28 03:06:33;;;;;;;3.00;1.97;;;;;;;16.65;72.07;150251.22;4928128;28;20253;-63
2023/06/28 03:09:00;;;;;;;5.53;2.23;;;;;;;16.61;71.14;150239.94;4937607;28;20237;-64
2023/06/28 03:11:30;;;;;;;4.57;2.03;;;;;;;16.61;71.40;150239.94;4900690;28;20262;-63
2023/06/28 03:14:01;;;;;;;5.87;2.20;;;;;;;16.60;71.06;150238.72;4924765;28;20614;-62
2023/06/28 03:16:30;;;;;;;5.43;2.03;;;;;;;16.61;70.89;150239.94;4942046;28;23130;-63
2023/06/28 03:19:00;;;;;;;6.33;2.13;;;;;;;16.61;72.07;150239.94;4950918;28;20317;-63
2023/06/28 03:21:27;;;;;;;4.23;2.10;;;;;;;16.59;72.48;150236.22;4941987;28;20234;-63
2023/06/28 03:24:19;;;;;;;4.63;1.83;;;;;;;16.56;71.37;150227.44;4945032;28;20232;-63
2023/06/28 03:26:46;;;;;;;6.73;2.37;;;;;;;16.53;71.86;150222.44;4946388;28;20255;-63
2023/06/28 03:29:13;;;;;;;5.40;1.93;;;;;;;16.56;72.42;150227.44;4963230;28;20299;-63
2023/06/28 03:31:40;;;;;;;5.37;1.87;;;;;;;16.53;72.69;150222.44;5149298;23;20242;-63
2023/06/28 03:34:07;;;;;;;6.30;1.97;;;;;;;16.53;71.85;150222.44;4933115;28;20238;-63
2023/06/28 03:36:34;;;;;;;4.80;1.80;;;;;;;16.52;71.09;150219.94;4930732;28;20288;-63
2023/06/28 03:39:01;;;;;;;5.07;2.07;;;;;;;16.59;70.61;150236.22;4935428;28;20234;-63
2023/06/28 03:41:29;;;;;;;6.73;2.10;;;;;;;16.64;70.24;150247.44;4944198;28;20309;-63
2023/06/28 03:44:02;;;;;;;6.40;1.90;;;;;;;16.65;70.32;150251.22;4934547;29;20230;-63
2023/06/28 03:46:29;;;;;;;4.67;1.90;;;;;;;16.64;71.24;150247.44;4932678;29;20237;-63
2023/06/28 03:49:00;;;;;;;8.73;2.10;;;;;;;16.66;68.80;150253.72;4937446;28;20321;-63
2023/06/28 03:51:26;;;;;;;7.10;2.10;;;;;;;16.70;69.42;150262.47;4932728;28;20900;-63
2023/06/28 03:53:53;;;;;;;5.53;2.00;;;;;;;16.66;70.05;150253.72;4934102;29;20224;-63
2023/06/28 03:56:20;;;;;;;3.77;1.87;;;;;;;16.73;71.09;150269.97;4933098;28;20240;-63
2023/06/28 03:58:49;;;;;;;4.87;1.90;;;;;;;16.78;71.10;150281.25;4933256;29;20231;-63
2023/06/28 04:01:16;;;;;;;7.10;2.10;;;;;;;16.77;70.87;150278.75;4929585;28;20727;-63
2023/06/28 04:03:42;;;;;;;5.27;1.97;;;;;;;16.80;69.88;150287.47;4936372;28;20313;-63
2023/06/28 04:06:09;;;;;;;5.23;2.10;;;;;;;16.85;70.98;150297.47;4936034;28;20231;-63
2023/06/28 04:08:35;;;;;;;3.40;1.90;;;;;;;16.87;70.92;150303.75;4935210;28;20246;-63
2023/06/28 04:11:02;;;;;;;3.77;2.00;;;;;;;16.92;68.55;150314.97;4936760;29;20377;-63
2023/06/28 04:13:29;;;;;;;5.33;2.23;;;;;;;16.99;68.66;150331.25;4931472;28;20238;-63
2023/06/28 04:15:57;;;;;;;3.87;1.90;;;;;;;17.02;69.79;150338.75;4937626;28;20338;-63
2023/06/28 04:18:23;;;;;;;5.93;2.50;;;;;;;17.00;69.15;150335.03;4936610;28;20240;-63
2023/06/28 04:20:50;;;;;;;3.73;1.80;;;;;;;17.11;69.48;150361.28;4937321;28;20296;-63
2023/06/28 04:23:17;;;;;;;3.87;1.90;;;;;;;17.11;69.64;150361.28;4931383;28;20234;-63
2023/06/28 04:25:44;;;;;;;3.07;1.90;;;;;;;17.13;69.42;150366.28;4935136;29;20633;-63
2023/06/28 04:28:10;;;;;;;4.37;2.27;;;;;;;17.19;68.80;150381.28;4930268;28;20285;-63
2023/06/28 04:30:37;;;;;;;4.77;2.10;;;;;;;17.28;69.77;150402.56;4934485;28;20241;-63
2023/06/28 04:33:05;;;;;;;7.87;2.20;;;;;;;17.24;69.19;150393.78;4937244;28;20233;-63
2023/06/28 04:35:33;;;;;;;3.93;1.87;;;;;;;17.31;70.03;150408.81;4934345;28;20253;-63
2023/06/28 04:38:03;;;;;;;5.40;2.00;;;;;;;17.39;70.86;150430.09;4937200;28;20324;-63
2023/06/28 04:40:30;;;;;;;5.60;2.10;;;;;;;17.38;70.11;150427.59;4931104;29;20288;-63
2023/06/28 04:42:56;;;;;;;7.20;2.50;;;;;;;17.39;68.13;150430.09;4936096;28;20288;-63
2023/06/28 04:45:35;;;;;;;6.53;2.10;;;;;;;17.36;68.03;150422.59;4933488;28;20291;-63
2023/06/28 04:48:03;;;;;;;6.93;2.40;;;;;;;17.37;69.16;150425.09;4934054;28;20243;-63
2023/06/28 04:50:31;;;;;;;4.90;1.80;;;;;;;17.43;69.48;150437.59;4931559;28;23152;-63
2023/06/28 04:52:58;;;;;;;5.30;2.20;;;;;;;17.53;69.75;150462.56;4936650;29;20228;-63
2023/06/28 04:55:24;;;;;;;3.33;2.10;;;;;;;17.62;70.70;150483.84;4931684;29;20246;-63
2023/06/28 04:57:51;;;;;;;4.00;2.10;;;;;;;17.70;69.19;150505.09;4935937;28;20743;-63
2023/06/28 05:00:18;;;;;;;3.07;1.77;;;;;;;17.81;68.94;150531.41;4932393;29;20227;-63
2023/06/28 05:02:45;;;;;;;4.50;2.13;;;;;;;17.90;67.96;150552.66;4936221;28;20240;-63
2023/06/28 05:05:11;;;;;;;9.07;2.17;;;;;;;17.98;67.63;150571.44;4932763;28;20258;-63
2023/06/28 05:07:39;;;;;;;4.97;2.10;;;;;;;18.13;68.83;150607.75;4935555;28;20293;-63
2023/06/28 05:10:06;;;;;;;5.20;2.40;;;;;;;18.21;69.47;150626.50;4934796;28;20249;-63
2023/06/28 05:12:33;;;;;;;5.23;2.63;;;;;;;18.27;68.62;150641.50;4932499;28;20243;-63
2023/06/28 05:14:59;;;;;;;7.30;2.30;;;;;;;18.35;67.75;150660.31;4936415;28;20289;-63
2023/06/28 05:17:26;;;;;;;5.83;2.40;;;;;;;18.46;65.88;150686.56;4933239;28;20232;-63
2023/06/28 05:19:52;;;;;;;4.77;1.70;;;;;;;18.61;66.57;150722.84;4934537;28;20231;-63
2023/06/28 05:22:21;;;;;;;5.53;1.90;;;;;;;18.68;67.41;150741.66;4928830;29;20264;-63
2023/06/28 05:24:49;;;;;;;6.40;2.03;;;;;;;18.76;66.92;150759.19;4931888;28;20650;-63
2023/06/28 05:27:16;;;;;;;5.27;2.20;;;;;;;18.86;67.57;150785.44;4933373;28;20274;-63
2023/06/28 05:29:42;;;;;;;3.83;2.03;;;;;;;19.06;67.05;150831.84;4932256;29;20257;-63
2023/06/28 05:32:09;;;;;;;4.20;1.77;;;;;;;19.18;64.42;150861.84;4936073;29;20238;-63
2023/06/28 05:34:36;;;;;;;5.00;1.77;;;;;;;19.36;64.44;150905.69;4935088;29;20239;-63
2023/06/28 05:37:02;;;;;;;5.70;2.03;;;;;;;19.58;61.31;150958.28;4940394;28;20320;-63
2023/06/28 05:39:29;;;;;;;7.40;2.10;;;;;;;19.82;61.56;151015.88;4935475;28;20595;-63
2023/06/28 05:41:57;;;;;;;6.53;1.97;;;;;;;19.98;60.15;151056.00;4936360;28;20576;-63
2023/06/28 05:44:23;;;;;;;2.63;1.47;;;;;;;20.20;57.22;151109.84;4934956;28;20236;-63
2023/06/28 05:46:52;;;;;;;4.67;1.80;;;;;;;20.43;59.10;151164.97;4937761;28;20236;-63
2023/06/28 05:49:19;;;;;;;5.10;2.30;;;;;;;20.64;57.52;151215.09;4936623;28;20247;-63
2023/06/28 05:51:46;;;;;;;3.70;1.87;;;;;;;20.73;56.54;151237.66;4946963;28;20246;-63
2023/06/28 05:54:13;;;;;;;3.10;2.00;;;;;;;20.75;55.43;151242.69;4935840;28;20235;-63
2023/06/28 05:56:40;;;;;;;3.13;2.00;;;;;;;20.89;53.72;151276.53;4937952;28;20229;-63
2023/06/28 05:59:08;;;;;;;3.17;1.90;;;;;;;20.99;55.94;151300.38;4942893;28;20322;-63
2023/06/28 06:01:34;;;;;;;3.70;1.80;;;;;;;21.16;54.69;151340.47;4935527;28;20249;-63
2023/06/28 06:04:01;;;;;;;5.70;2.00;;;;;;;21.21;52.11;151352.97;4938508;29;20592;-63
2023/06/28 06:06:27;;;;;;;5.93;2.00;;;;;;;21.15;51.81;151337.97;4934134;29;20235;-63
2023/06/28 06:09:00;;;;;;;5.20;2.27;;;;;;;21.12;52.84;151330.47;4953882;28;20241;-63
2023/06/28 06:11:26;;;;;;;5.80;1.90;;;;;;;21.13;53.24;151332.97;4933869;28;20340;-63
2023/06/28 06:13:57;;;;;;;4.07;1.90;;;;;;;21.36;52.29;151389.34;4940403;29;20221;-63
2023/06/28 06:16:25;;;;;;;6.80;2.40;;;;;;;21.42;51.32;151403.13;4934519;29;20237;-63
2023/06/28 06:18:51;;;;;;;3.40;1.73;;;;;;;21.53;51.12;151431.97;4940233;29;20239;-63
2023/06/28 06:21:18;;;;;;;4.03;2.10;;;;;;;21.39;51.95;151398.09;4936480;28;20686;-63
2023/06/28 06:23:44;;;;;;;4.17;1.60;;;;;;;21.35;52.70;151388.06;4936705;28;20243;-63
2023/06/28 06:26:11;;;;;;;4.63;2.23;;;;;;;21.50;51.32;151423.19;4936331;28;20244;-63
2023/06/28 06:28:38;;;;;;;9.87;3.57;;;;;;;21.70;51.20;151470.88;4940057;28;20237;-63
2023/06/28 06:31:05;;;;;;;4.63;2.20;;;;;;;21.59;51.15;151445.75;4941463;28;20665;-63
2023/06/28 06:33:35;;;;;;;5.00;2.30;;;;;;;21.73;52.60;151478.41;4938466;28;20695;-63
2023/06/28 06:36:01;;;;;;;5.33;2.57;;;;;;;21.90;51.20;151519.75;4939633;28;20234;-63
2023/06/28 06:38:28;;;;;;;4.53;2.30;;;;;;;22.24;49.62;151603.81;4936016;28;20290;-63
2023/06/28 06:40:54;;;;;;;3.37;1.93;;;;;;;22.35;49.90;151628.84;4937990;28;20231;-63
2023/06/28 06:43:21;;;;;;;4.43;2.20;;;;;;;;;;4936036;28;20227;-63
2023/06/28 06:45:48;;;;;;;3.33;2.13;;;;;;;22.40;49.23;151642.66;4935841;28;20238;-63
2023/06/28 06:48:14;;;;;;;5.20;2.53;;;;;;;22.13;50.03;151576.22;4934756;28;20226;-63
2023/06/28 06:50:42;;;;;;;6.63;2.50;;;;;;;22.48;49.81;151660.28;4936906;29;20232;-63
2023/06/28 06:53:09;;;;;;;6.10;2.40;;;;;;;22.55;50.73;151679.06;4934306;28;20237;-64
2023/06/28 06:55:35;;;;;;;7.80;3.10;;;;;;;22.83;50.50;151746.81;4934632;28;20361;-64
2023/06/28 06:58:02;;;;;;;7.03;2.77;;;;;;;23.06;49.58;151800.75;4934784;29;20246;-63
2023/06/28 07:00:30;;;;;;;5.83;2.60;;;;;;;23.20;50.16;151834.66;4932324;28;20299;-63
2023/06/28 07:02:56;;;;;;;7.97;2.70;;;;;;;23.02;49.21;151792.00;4938004;28;20295;-63
2023/06/28 07:05:23;;;;;;;6.00;2.70;;;;;;;22.53;51.07;151672.81;4936374;28;20255;-64
2023/06/28 07:07:50;;;;;;;6.47;2.90;;;;;;;21.68;53.21;151467.13;4939220;28;20253;-63
2023/06/28 07:10:17;;;;;;;3.90;2.70;;;;;;;21.58;54.21;151442.00;4934448;28;20241;-63
2023/06/28 07:12:44;;;;;;;9.67;2.83;;;;;;;21.85;53.90;151507.22;4935044;28;20246;-63
2023/06/28 07:15:11;;;;;;;6.60;2.90;;;;;;;21.78;53.60;151492.16;4933427;28;20408;-63
2023/06/28 07:17:37;;;;;;;8.23;2.87;;;;;;;21.89;52.80;151517.25;4935838;28;20866;-63
2023/06/28 07:20:05;;;;;;;10.63;3.07;;;;;;;22.15;51.74;151581.22;4939772;29;20229;-63
2023/06/28 07:22:32;;;;;;;7.60;3.70;;;;;;;22.21;51.61;151595.00;4936944;28;20249;-63
2023/06/28 07:25:02;;;;;;;6.30;3.10;;;;;;;22.07;50.56;151561.16;4937625;28;20290;-63
2023/06/28 07:27:29;;;;;;;8.93;3.37;;;;;;;22.20;51.11;151593.78;4937382;28;20245;-63
2023/06/28 07:29:56;;;;;;;5.20;2.60;;;;;;;22.59;50.46;151686.59;4935158;28;20583;-63
2023/06/28 07:32:26;;;;;;;6.33;2.50;;;;;;;22.89;49.18;151759.38;4934686;28;20246;-63
2023/06/28 07:34:52;;;;;;;4.63;2.80;;;;;;;23.14;47.38;151822.09;4936710;28;20227;-63
2023/06/28 07:37:19;;;;;;;9.00;2.70;;;;;;;23.43;48.28;151891.16;4933129;29;20234;-63
2023/06/28 07:39:46;;;;;;;7.13;2.73;;;;;;;23.55;46.76;151921.28;4935326;28;20603;-63
2023/06/28 07:42:14;;;;;;;5.50;2.30;;;;;;;24.09;44.88;152051.84;4935778;29;20893;-63
2023/06/28 07:44:41;;;;;;;7.37;2.70;;;;;;;23.80;45.19;151980.25;4941573;28;20235;-63
2023/06/28 07:47:07;;;;;;;5.77;2.53;;;;;;;23.73;45.63;151965.19;4936281;28;20227;-63
2023/06/28 07:49:34;;;;;;;6.70;2.17;;;;;;;23.68;45.11;151952.63;4933970;28;20219;-63
2023/06/28 07:52:01;;;;;;;6.80;2.47;;;;;;;23.31;45.80;151861.03;4937823;28;20242;-63
2023/06/28 07:54:27;;;;;;;7.30;2.50;;;;;;;22.92;46.86;151768.13;4935149;28;20233;-63
2023/06/28 07:56:54;;;;;;;3.77;1.90;;;;;;;23.00;46.73;151786.97;4935815;28;20305;-63
2023/06/28 07:59:23;;;;;;;4.27;2.17;;;;;;;23.12;46.13;151815.81;4935707;28;20294;-63
2023/06/28 08:01:49;;;;;;;4.60;1.90;;;;;;;22.91;43.28;151765.63;4935707;28;20242;-63
2023/06/28 08:04:16;;;;;;;5.50;2.00;;;;;;;22.69;45.68;151711.69;4933254;28;20240;-63
2023/06/28 08:06:43;;;;;;;6.93;2.50;;;;;;;22.45;46.33;151652.75;4936423;29;20230;-63
2023/06/28 08:09:10;;;;;;;6.17;2.10;;;;;;;22.35;46.97;151628.84;4938892;28;20688;-63
2023/06/28 08:11:37;;;;;;;5.20;1.60;;;;;;;22.45;45.63;151652.75;4933162;28;20259;-63
2023/06/28 08:14:04;;;;;;;4.00;1.73;;;;;;;22.82;45.40;151744.31;4935365;28;20235;-63
2023/06/28 08:16:32;;;;;;;7.67;2.00;;;;;;;23.30;44.95;151859.81;4931112;29;21161;-63
2023/06/28 08:19:00;;;;;;;5.27;2.00;;;;;;;23.60;43.60;151932.56;4936314;29;20227;-63
2023/06/28 08:21:27;;;;;;;5.80;1.90;;;;;;;23.98;42.63;152024.16;4936771;28;20745;-63
2023/06/28 08:24:00;;;;;;;5.60;2.13;;;;;;;24.20;40.56;152076.94;4937354;28;20245;-63
2023/06/28 08:26:26;;;;;;;4.40;1.97;;;;;;;24.37;41.44;152119.63;4932541;28;20244;-63
2023/06/28 08:28:53;;;;;;;5.63;1.90;;;;;;;24.38;40.73;152120.91;4934400;29;20256;-63
2023/06/28 08:31:19;;;;;;;3.20;1.70;;;;;;;24.17;39.46;152070.69;4929986;28;20698;-63
2023/06/28 08:33:47;;;;;;;3.43;1.60;;;;;;;24.08;40.08;152049.31;4935109;28;20720;-63
2023/06/28 08:36:14;;;;;;;8.03;1.80;;;;;;;24.18;39.21;152073.19;4933408;28;20731;-63
2023/06/28 08:38:40;;;;;;;4.73;1.77;;;;;;;24.29;40.64;152099.53;4935461;28;20629;-63
2023/06/28 08:41:07;;;;;;;4.63;1.80;;;;;;;24.58;40.99;152171.09;4935353;28;20235;-63
2023/06/28 08:43:34;;;;;;;5.23;1.80;;;;;;;24.83;39.18;152230.19;4933834;29;20242;-64
2023/06/28 08:46:01;;;;;;;5.23;1.97;;;;;;;24.09;41.54;152050.59;4933699;28;20239;-65
2023/06/28 08:48:28;;;;;;;13.57;2.50;;;;;;;24.40;41.22;152127.16;4931120;28;20293;-65
2023/06/28 08:50:58;;;;;;;5.70;2.23;;;;;;;24.56;41.22;152164.84;4935096;29;20226;-65
2023/06/28 08:53:29;;;;;;;6.50;2.10;;;;;;;24.65;40.96;152186.16;4929167;28;20287;-65
2023/06/28 08:55:57;;;;;;;7.80;2.27;;;;;;;24.69;40.42;152197.50;4933688;29;20224;-65
2023/06/28 08:58:24;;;;;;;5.53;2.13;;;;;;;24.33;41.45;152109.59;4936794;28;20615;-64
2023/06/28 09:00:51;;;;;;;14.67;2.23;;;;;;;24.23;41.54;152085.75;4937444;28;20302;-64
2023/06/28 09:03:18;;;;;;;6.57;2.57;;;;;;;24.06;41.46;152043.06;4931633;28;20293;-64
2023/06/28 09:05:45;;;;;;;4.97;1.90;;;;;;;24.11;41.26;152055.63;4934320;29;20272;-64
2023/06/28 09:08:14;;;;;;;4.73;1.80;;;;;;;24.40;40.09;152127.16;4933431;28;20240;-65
2023/06/28 09:10:45;;;;;;;4.23;2.00;;;;;;;24.36;40.11;152115.88;4936516;28;20242;-65
2023/06/28 09:13:19;;;;;;;3.77;1.90;;;;;;;24.27;42.09;152095.81;4914475;29;20233;-65
2023/06/28 09:15:45;;;;;;;4.20;1.97;;;;;;;24.05;39.41;152040.56;4934642;28;20233;-64
2023/06/28 09:18:12;;;;;;;7.97;2.53;;;;;;;23.99;39.38;152026.72;4934924;28;20248;-64
2023/06/28 09:20:48;;;;;;;6.20;2.10;;;;;;;24.00;39.39;152030.50;4934596;28;20238;-64
2023/06/28 09:23:22;;;;;;;6.43;2.17;;;;;;;24.05;39.22;152040.56;4931266;28;20580;-64
2023/06/28 09:25:50;;;;;;;6.60;2.20;;;;;;;24.45;40.29;152139.72;4935654;28;20303;-65
2023/06/28 09:28:17;;;;;;;5.00;2.00;;;;;;;25.10;39.38;152296.75;4932110;28;20243;-65
2023/06/28 09:30:53;;;;;;;5.23;1.77;;;;;;;25.54;37.78;152403.56;4934972;28;20334;-65
2023/06/28 09:33:20;;;;;;;5.77;1.60;;;;;;;26.08;36.49;152535.47;4932595;28;20326;-65
2023/06/28 09:35:46;;;;;;;6.27;2.00;;;;;;;26.12;35.13;152543.00;4936491;28;20315;-65
2023/06/28 09:38:13;;;;;;;5.67;2.00;;;;;;;26.24;35.20;152573.22;4932788;28;20238;-65
2023/06/28 09:40:41;;;;;;;8.87;1.93;;;;;;;25.94;36.76;152500.28;4934275;28;20248;-65
2023/06/28 09:43:15;;;;;;;2.83;1.70;;;;;;;25.45;37.93;152382.16;4935272;28;20588;-65
2023/06/28 09:45:41;;;;;;;7.57;2.05;;;;;;;25.40;37.45;152368.31;4930722;28;20726;-65
2023/06/28 09:48:08;;;;;;;6.10;1.80;;;;;;;25.39;36.92;152365.81;4935769;28;20723;-65
2023/06/28 09:50:37;;;;;;;8.87;2.33;;;;;;;25.39;37.86;152365.81;4931703;28;20230;-65
2023/06/28 09:53:06;;;;;;;5.37;2.20;;;;;;;26.02;38.00;152520.38;4930945;29;20244;-65
2023/06/28 09:55:33;;;;;;;6.30;2.07;;;;;;;26.27;36.78;152580.75;4933206;28;20566;-65
2023/06/28 09:58:02;;;;;;;6.33;2.37;;;;;;;25.06;37.15;152286.69;4934213;28;20630;-65
2023/06/28 10:00:30;;;;;;;5.07;2.60;;;;;;;25.99;35.53;152512.84;4929757;28;20236;-65
2023/06/28 10:02:59;;;;;;;5.25;1.75;;;;;;;25.82;36.97;152471.41;4935875;29;20619;-65
2023/06/28 10:05:26;;;;;;;3.80;1.88;;;;;;;26.49;36.99;152633.56;4929811;29;20287;-65
2023/06/28 10:07:53;;;;;;;3.40;1.87;;;;;;;26.86;36.11;152722.84;4935640;28;20250;-65
2023/06/28 10:10:20;;;;;;;4.82;2.17;;;;;;;27.00;35.11;152758.03;4930835;29;20306;-65
2023/06/28 10:12:47;;;;;;;7.25;2.35;;;;;;;26.98;37.16;152751.72;4936068;28;20243;-65
2023/06/28 10:15:22;;;;;;;6.20;1.90;;;;;;;27.30;34.10;152830.91;4931541;28;20237;-65
2023/06/28 10:17:50;;;;;;;3.75;1.88;;;;;;;27.01;35.83;152759.28;4932036;29;20227;-65
2023/06/28 10:20:17;;;;;;;6.83;2.20;;;;;;;26.85;34.98;152720.31;4932435;28;20265;-65
2023/06/28 10:22:44;;;;;;;4.38;2.15;;;;;;;27.17;33.45;152799.50;4938403;28;20302;-65
2023/06/28 10:25:12;;;;;;;4.03;2.00;;;;;;;27.61;33.53;152906.44;4934643;28;20795;-65
2023/06/28 10:27:40;;;;;;;6.68;2.22;;;;;;;27.13;33.56;152788.16;4934616;28;20244;-65
2023/06/28 10:30:07;;;;;;;4.72;2.45;;;;;;;27.33;33.69;152837.22;4939633;28;20228;-65
2023/06/28 10:32:36;;;;;;;5.20;2.08;;;;;;;26.85;33.95;152721.56;4933482;28;20244;-65
2023/06/28 10:35:03;;;;;;;8.23;2.47;;;;;;;27.07;34.54;152774.34;4937986;28;20677;-65
2023/06/28 10:37:30;;;;;;;4.75;1.92;;;;;;;27.01;34.55;152759.28;4936030;28;20280;-65
2023/06/28 10:39:57;;;;;;;7.55;2.30;;;;;;;26.60;34.29;152659.94;4938165;28;20290;-65
2023/06/28 10:42:23;;;;;;;5.75;2.33;;;;;;;26.19;35.13;152560.66;4933848;29;20290;-65
2023/06/28 10:44:52;;;;;;;3.35;1.75;;;;;;;26.45;35.05;152623.50;4938155;29;20583;-65
2023/06/28 10:47:18;;;;;;;6.97;2.20;;;;;;;26.59;34.53;152658.66;4936546;28;20739;-65
2023/06/28 10:50:05;;;;;;;4.30;2.20;;;;;;;25.97;36.85;152507.81;4941875;28;20587;-65
2023/06/28 10:52:32;;;;;;;4.63;2.15;;;;;;;26.46;34.83;152627.25;4934167;28;20256;-64
2023/06/28 10:54:59;;;;;;;4.43;2.05;;;;;;;26.40;35.87;152610.94;4937457;28;20242;-64
2023/06/28 10:57:36;;;;;;;6.73;2.07;;;;;;;27.13;34.52;152789.44;4936236;28;20282;-64
2023/06/28 11:00:05;;;;;;;4.90;1.92;;;;;;;27.44;34.71;152864.91;4941044;28;20626;-64
2023/06/28 11:02:54;;;;;;;7.45;2.13;;;;;;;27.65;33.06;152915.19;4934627;28;20260;-64
2023/06/28 11:05:39;;;;;;;5.57;2.20;;;;;;;27.82;32.17;152957.97;4933829;28;20778;-64
2023/06/28 11:08:10;;;;;;;6.47;2.47;;;;;;;27.61;32.19;152906.44;4939079;28;20236;-64
2023/06/28 11:10:38;;;;;;;6.20;1.80;;;;;;;27.75;32.41;152940.34;4934153;28;20237;-65
2023/06/28 11:13:08;;;;;;;6.68;2.22;;;;;;;27.59;33.19;152901.41;4936634;28;20245;-65
2023/06/28 11:15:35;;;;;;;5.18;2.20;;;;;;;27.68;33.38;152922.75;4929989;29;20704;-65
2023/06/28 11:18:10;;;;;;;4.75;2.05;;;;;;;27.61;32.80;152905.13;4938965;28;20239;-65
2023/06/28 11:20:48;;;;;;;3.65;1.90;;;;;;;28.28;34.24;153069.94;4933054;28;20261;-65
2023/06/28 11:23:24;;;;;;;6.25;2.10;;;;;;;28.42;31.74;153103.94;4934237;29;20245;-65
2023/06/28 11:25:58;;;;;;;3.28;1.85;;;;;;;28.51;34.06;153124.06;4937034;28;20312;-65
2023/06/28 11:28:29;;;;;;;8.15;1.92;;;;;;;28.12;32.97;153029.66;4935348;28;20282;-65
2023/06/28 11:30:56;;;;;;;6.68;1.98;;;;;;;27.77;33.55;152944.16;4932188;29;20238;-65